sensor_id;sensor_type;location;lat;lon;timestamp;P1;P2;P0
47810;PMS5003;33575;52.600;7.318;2024-02-23T00:00:36;1;0;
47810;PMS5003;33575;52.600;7.318;2024-02-23T00:03:06;0;0;
47810;PMS5003;33575;52.600;7.318;2024-02-23T00:05:37;2;2;
47810;PMS5003;33575;52.600;7.318;2024-02-23T00:08:08;2;2;
47810;PMS5003;33575;52.600;7.318;2024-02-23T00:10:38;3;3;
47810;PMS5003;33575;52.600;7.318;2024-02-23T00:13:09;3;3;
47810;PMS5003;33575;52.600;7.318;2024-02-23T00:15:40;3;3;
47810;PMS5003;33575;52.600;7.318;2024-02-23T00:18:10;10;10;
47810;PMS5003;33575;52.600;7.318;2024-02-23T00:20:41;14;14;
47810;PMS5003;33575;52.600;7.318;2024-02-23T00:23:12;0;0;
47810;PMS5003;33575;52.600;7.318;2024-02-23T00:25:43;0;0;
47810;PMS5003;33575;52.600;7.318;2024-02-23T00:28:13;0;0;
47810;PMS5003;33575;52.600;7.318;2024-02-23T00:30:44;0;0;
47810;PMS5003;33575;52.600;7.318;2024-02-23T00:33:15;0;0;
47810;PMS5003;33575;52.600;7.318;2024-02-23T00:35:45;0;0;
47810;PMS5003;33575;52.600;7.318;2024-02-23T00:38:16;0;0;
47810;PMS5003;33575;52.600;7.318;2024-02-23T00:40:47;1;1;
47810;PMS5003;33575;52.600;7.318;2024-02-23T00:43:18;0;0;
47810;PMS5003;33575;52.600;7.318;2024-02-23T00:45:48;0;0;
47810;PMS5003;33575;52.600;7.318;2024-02-23T00:48:19;0;0;
47810;PMS5003;33575;52.600;7.318;2024-02-23T00:50:50;0;0;
47810;PMS5003;33575;52.600;7.318;2024-02-23T00:53:20;0;0;
47810;PMS5003;33575;52.600;7.318;2024-02-23T00:55:51;0;0;
47810;PMS5003;33575;52.600;7.318;2024-02-23T00:58:22;0;0;
47810;PMS5003;33575;52.600;7.318;2024-02-23T01:00:53;0;0;
47810;PMS5003;33575;52.600;7.318;2024-02-23T01:03:23;0;0;
47810;PMS5003;33575;52.600;7.318;2024-02-23T01:05:54;0;0;
47810;PMS5003;33575;52.600;7.318;2024-02-23T01:08:25;0;0;
47810;PMS5003;33575;52.600;7.318;2024-02-23T01:10:56;1;0;
47810;PMS5003;33575;52.600;7.318;2024-02-23T01:13:26;0;0;
47810;PMS5003;33575;52.600;7.318;2024-02-23T01:15:57;0;0;
47810;PMS5003;33575;52.600;7.318;2024-02-23T01:18:28;0;0;
47810;PMS5003;33575;52.600;7.318;2024-02-23T01:20:58;0;0;
47810;PMS5003;33575;52.600;7.318;2024-02-23T01:23:29;0;0;
47810;PMS5003;33575;52.600;7.318;2024-02-23T01:26:00;0;0;
47810;PMS5003;33575;52.600;7.318;2024-02-23T01:28:30;0;0;
47810;PMS5003;33575;52.600;7.318;2024-02-23T01:31:01;0;0;
47810;PMS5003;33575;52.600;7.318;2024-02-23T01:33:32;0;0;
47810;PMS5003;33575;52.600;7.318;2024-02-23T01:36:03;1;1;
47810;PMS5003;33575;52.600;7.318;2024-02-23T01:38:34;1;0;
47810;PMS5003;33575;52.600;7.318;2024-02-23T01:41:04;0;0;
47810;PMS5003;33575;52.600;7.318;2024-02-23T01:43:35;1;1;
47810;PMS5003;33575;52.600;7.318;2024-02-23T01:46:06;1;1;
47810;PMS5003;33575;52.600;7.318;2024-02-23T01:48:36;1;1;
47810;PMS5003;33575;52.600;7.318;2024-02-23T01:51:07;0;0;
47810;PMS5003;33575;52.600;7.318;2024-02-23T01:53:38;0;0;
47810;PMS5003;33575;52.600;7.318;2024-02-23T01:56:09;1;0;
47810;PMS5003;33575;52.600;7.318;2024-02-23T01:58:39;1;1;
47810;PMS5003;33575;52.600;7.318;2024-02-23T02:01:10;1;1;
47810;PMS5003;33575;52.600;7.318;2024-02-23T02:03:41;3;2;
47810;PMS5003;33575;52.600;7.318;2024-02-23T02:06:12;2;1;
47810;PMS5003;33575;52.600;7.318;2024-02-23T02:08:42;1;1;
47810;PMS5003;33575;52.600;7.318;2024-02-23T02:11:13;2;2;
47810;PMS5003;33575;52.600;7.318;2024-02-23T02:13:43;4;4;
47810;PMS5003;33575;52.600;7.318;2024-02-23T02:16:14;2;1;
47810;PMS5003;33575;52.600;7.318;2024-02-23T02:18:45;2;2;
47810;PMS5003;33575;52.600;7.318;2024-02-23T02:21:15;3;2;
47810;PMS5003;33575;52.600;7.318;2024-02-23T02:23:46;3;3;
47810;PMS5003;33575;52.600;7.318;2024-02-23T02:26:17;4;3;
47810;PMS5003;33575;52.600;7.318;2024-02-23T02:28:48;5;5;
47810;PMS5003;33575;52.600;7.318;2024-02-23T02:31:18;4;4;
47810;PMS5003;33575;52.600;7.318;2024-02-23T02:33:49;4;4;
47810;PMS5003;33575;52.600;7.318;2024-02-23T02:36:20;5;5;
47810;PMS5003;33575;52.600;7.318;2024-02-23T02:38:51;4;4;
47810;PMS5003;33575;52.600;7.318;2024-02-23T02:41:22;7;5;
47810;PMS5003;33575;52.600;7.318;2024-02-23T02:43:52;4;3;
47810;PMS5003;33575;52.600;7.318;2024-02-23T02:46:23;4;3;
47810;PMS5003;33575;52.600;7.318;2024-02-23T02:48:54;3;3;
47810;PMS5003;33575;52.600;7.318;2024-02-23T02:51:24;2;2;
47810;PMS5003;33575;52.600;7.318;2024-02-23T02:53:55;1;1;
47810;PMS5003;33575;52.600;7.318;2024-02-23T02:56:26;2;2;
47810;PMS5003;33575;52.600;7.318;2024-02-23T02:58:57;2;2;
47810;PMS5003;33575;52.600;7.318;2024-02-23T03:01:28;2;2;
47810;PMS5003;33575;52.600;7.318;2024-02-23T03:03:58;3;3;
47810;PMS5003;33575;52.600;7.318;2024-02-23T03:06:29;2;2;
47810;PMS5003;33575;52.600;7.318;2024-02-23T03:09:00;2;2;
47810;PMS5003;33575;52.600;7.318;2024-02-23T03:11:31;2;2;
47810;PMS5003;33575;52.600;7.318;2024-02-23T03:14:01;0;0;
47810;PMS5003;33575;52.600;7.318;2024-02-23T03:16:32;1;1;
47810;PMS5003;33575;52.600;7.318;2024-02-23T03:19:03;0;0;
47810;PMS5003;33575;52.600;7.318;2024-02-23T03:21:36;1;1;
47810;PMS5003;33575;52.600;7.318;2024-02-23T03:24:04;1;0;
47810;PMS5003;33575;52.600;7.318;2024-02-23T03:26:35;0;0;
47810;PMS5003;33575;52.600;7.318;2024-02-23T03:29:06;0;0;
47810;PMS5003;33575;52.600;7.318;2024-02-23T03:31:37;0;0;
47810;PMS5003;33575;52.600;7.318;2024-02-23T03:34:07;0;0;
47810;PMS5003;33575;52.600;7.318;2024-02-23T03:36:38;0;0;
47810;PMS5003;33575;52.600;7.318;2024-02-23T03:39:09;0;0;
47810;PMS5003;33575;52.600;7.318;2024-02-23T03:41:40;0;0;
47810;PMS5003;33575;52.600;7.318;2024-02-23T03:44:10;0;0;
47810;PMS5003;33575;52.600;7.318;2024-02-23T03:46:41;1;1;
47810;PMS5003;33575;52.600;7.318;2024-02-23T03:49:12;3;3;
47810;PMS5003;33575;52.600;7.318;2024-02-23T03:51:43;2;2;
47810;PMS5003;33575;52.600;7.318;2024-02-23T03:54:13;4;4;
47810;PMS5003;33575;52.600;7.318;2024-02-23T03:56:44;4;3;
47810;PMS5003;33575;52.600;7.318;2024-02-23T03:59:15;3;3;
47810;PMS5003;33575;52.600;7.318;2024-02-23T04:01:45;3;3;
47810;PMS5003;33575;52.600;7.318;2024-02-23T04:04:17;5;5;
47810;PMS5003;33575;52.600;7.318;2024-02-23T04:06:47;7;5;
47810;PMS5003;33575;52.600;7.318;2024-02-23T04:09:18;6;5;
47810;PMS5003;33575;52.600;7.318;2024-02-23T04:11:49;7;7;
47810;PMS5003;33575;52.600;7.318;2024-02-23T04:14:19;7;6;
47810;PMS5003;33575;52.600;7.318;2024-02-23T04:16:50;6;6;
47810;PMS5003;33575;52.600;7.318;2024-02-23T04:19:21;8;7;
47810;PMS5003;33575;52.600;7.318;2024-02-23T04:21:52;7;7;
47810;PMS5003;33575;52.600;7.318;2024-02-23T04:24:26;9;7;
47810;PMS5003;33575;52.600;7.318;2024-02-23T04:26:53;6;6;
47810;PMS5003;33575;52.600;7.318;2024-02-23T04:29:24;6;6;
47810;PMS5003;33575;52.600;7.318;2024-02-23T04:31:55;8;7;
47810;PMS5003;33575;52.600;7.318;2024-02-23T04:34:26;6;5;
47810;PMS5003;33575;52.600;7.318;2024-02-23T04:36:56;5;5;
47810;PMS5003;33575;52.600;7.318;2024-02-23T04:39:27;4;3;
47810;PMS5003;33575;52.600;7.318;2024-02-23T04:41:58;6;5;
47810;PMS5003;33575;52.600;7.318;2024-02-23T04:44:28;3;3;
47810;PMS5003;33575;52.600;7.318;2024-02-23T04:46:59;3;3;
47810;PMS5003;33575;52.600;7.318;2024-02-23T04:49:30;4;4;
47810;PMS5003;33575;52.600;7.318;2024-02-23T04:52:00;4;3;
47810;PMS5003;33575;52.600;7.318;2024-02-23T04:54:31;6;5;
47810;PMS5003;33575;52.600;7.318;2024-02-23T04:57:02;3;3;
47810;PMS5003;33575;52.600;7.318;2024-02-23T04:59:33;4;4;
47810;PMS5003;33575;52.600;7.318;2024-02-23T05:02:04;4;4;
47810;PMS5003;33575;52.600;7.318;2024-02-23T05:04:34;5;4;
47810;PMS5003;33575;52.600;7.318;2024-02-23T05:07:05;4;4;
47810;PMS5003;33575;52.600;7.318;2024-02-23T05:09:36;5;4;
47810;PMS5003;33575;52.600;7.318;2024-02-23T05:12:07;5;4;
47810;PMS5003;33575;52.600;7.318;2024-02-23T05:14:37;5;5;
47810;PMS5003;33575;52.600;7.318;2024-02-23T05:17:08;3;3;
47810;PMS5003;33575;52.600;7.318;2024-02-23T05:19:39;4;4;
47810;PMS5003;33575;52.600;7.318;2024-02-23T05:22:09;4;4;
47810;PMS5003;33575;52.600;7.318;2024-02-23T05:24:40;2;2;
47810;PMS5003;33575;52.600;7.318;2024-02-23T05:27:11;4;4;
47810;PMS5003;33575;52.600;7.318;2024-02-23T05:29:41;5;4;
47810;PMS5003;33575;52.600;7.318;2024-02-23T05:32:12;3;3;
47810;PMS5003;33575;52.600;7.318;2024-02-23T05:34:43;8;5;
47810;PMS5003;33575;52.600;7.318;2024-02-23T05:37:14;4;3;
47810;PMS5003;33575;52.600;7.318;2024-02-23T05:39:48;6;4;
47810;PMS5003;33575;52.600;7.318;2024-02-23T05:42:15;3;3;
47810;PMS5003;33575;52.600;7.318;2024-02-23T05:44:46;3;3;
47810;PMS5003;33575;52.600;7.318;2024-02-23T05:47:17;7;5;
47810;PMS5003;33575;52.600;7.318;2024-02-23T05:49:48;4;3;
47810;PMS5003;33575;52.600;7.318;2024-02-23T05:52:18;6;4;
47810;PMS5003;33575;52.600;7.318;2024-02-23T05:54:53;4;4;
47810;PMS5003;33575;52.600;7.318;2024-02-23T05:57:20;4;3;
47810;PMS5003;33575;52.600;7.318;2024-02-23T05:59:50;5;4;
47810;PMS5003;33575;52.600;7.318;2024-02-23T06:02:21;5;5;
47810;PMS5003;33575;52.600;7.318;2024-02-23T06:04:52;3;3;
47810;PMS5003;33575;52.600;7.318;2024-02-23T06:07:22;5;4;
47810;PMS5003;33575;52.600;7.318;2024-02-23T06:09:53;4;4;
47810;PMS5003;33575;52.600;7.318;2024-02-23T06:12:24;4;3;
47810;PMS5003;33575;52.600;7.318;2024-02-23T06:14:54;3;3;
47810;PMS5003;33575;52.600;7.318;2024-02-23T06:17:25;6;3;
47810;PMS5003;33575;52.600;7.318;2024-02-23T06:19:56;4;3;
47810;PMS5003;33575;52.600;7.318;2024-02-23T06:22:26;5;5;
47810;PMS5003;33575;52.600;7.318;2024-02-23T06:24:57;4;4;
47810;PMS5003;33575;52.600;7.318;2024-02-23T06:27:28;5;4;
47810;PMS5003;33575;52.600;7.318;2024-02-23T06:29:58;4;4;
47810;PMS5003;33575;52.600;7.318;2024-02-23T06:32:29;5;5;
47810;PMS5003;33575;52.600;7.318;2024-02-23T06:35:02;3;3;
47810;PMS5003;33575;52.600;7.318;2024-02-23T06:37:31;5;5;
47810;PMS5003;33575;52.600;7.318;2024-02-23T06:40:01;5;4;
47810;PMS5003;33575;52.600;7.318;2024-02-23T06:42:32;5;4;
47810;PMS5003;33575;52.600;7.318;2024-02-23T06:45:03;6;5;
47810;PMS5003;33575;52.600;7.318;2024-02-23T06:47:34;5;4;
47810;PMS5003;33575;52.600;7.318;2024-02-23T06:50:05;4;4;
47810;PMS5003;33575;52.600;7.318;2024-02-23T06:52:35;5;4;
47810;PMS5003;33575;52.600;7.318;2024-02-23T06:55:06;6;5;
47810;PMS5003;33575;52.600;7.318;2024-02-23T06:57:36;6;4;
47810;PMS5003;33575;52.600;7.318;2024-02-23T07:00:08;5;4;
47810;PMS5003;33575;52.600;7.318;2024-02-23T07:02:38;4;3;
47810;PMS5003;33575;52.600;7.318;2024-02-23T07:05:09;5;4;
47810;PMS5003;33575;52.600;7.318;2024-02-23T07:07:39;6;5;
47810;PMS5003;33575;52.600;7.318;2024-02-23T07:10:10;5;3;
47810;PMS5003;33575;52.600;7.318;2024-02-23T07:12:41;4;4;
47810;PMS5003;33575;52.600;7.318;2024-02-23T07:15:11;5;4;
47810;PMS5003;33575;52.600;7.318;2024-02-23T07:17:43;4;4;
47810;PMS5003;33575;52.600;7.318;2024-02-23T07:20:13;7;5;
47810;PMS5003;33575;52.600;7.318;2024-02-23T07:22:44;3;2;
47810;PMS5003;33575;52.600;7.318;2024-02-23T07:25:15;4;4;
47810;PMS5003;33575;52.600;7.318;2024-02-23T07:27:45;3;1;
47810;PMS5003;33575;52.600;7.318;2024-02-23T07:30:16;2;2;
47810;PMS5003;33575;52.600;7.318;2024-02-23T07:32:51;4;3;
47810;PMS5003;33575;52.600;7.318;2024-02-23T07:35:17;3;3;
47810;PMS5003;33575;52.600;7.318;2024-02-23T07:37:48;2;1;
47810;PMS5003;33575;52.600;7.318;2024-02-23T07:40:23;2;1;
47810;PMS5003;33575;52.600;7.318;2024-02-23T07:42:49;3;3;
47810;PMS5003;33575;52.600;7.318;2024-02-23T07:45:20;2;2;
47810;PMS5003;33575;52.600;7.318;2024-02-23T07:47:51;2;2;
47810;PMS5003;33575;52.600;7.318;2024-02-23T07:50:21;3;3;
47810;PMS5003;33575;52.600;7.318;2024-02-23T07:52:52;4;2;
47810;PMS5003;33575;52.600;7.318;2024-02-23T07:55:23;2;2;
47810;PMS5003;33575;52.600;7.318;2024-02-23T07:57:54;3;2;
47810;PMS5003;33575;52.600;7.318;2024-02-23T08:00:28;3;2;
47810;PMS5003;33575;52.600;7.318;2024-02-23T08:02:55;3;3;
47810;PMS5003;33575;52.600;7.318;2024-02-23T08:05:26;3;2;
47810;PMS5003;33575;52.600;7.318;2024-02-23T08:07:57;1;1;
47810;PMS5003;33575;52.600;7.318;2024-02-23T08:10:27;1;1;
47810;PMS5003;33575;52.600;7.318;2024-02-23T08:12:59;1;0;
47810;PMS5003;33575;52.600;7.318;2024-02-23T08:15:28;2;1;
47810;PMS5003;33575;52.600;7.318;2024-02-23T08:17:59;1;0;
47810;PMS5003;33575;52.600;7.318;2024-02-23T08:20:30;47;45;
47810;PMS5003;33575;52.600;7.318;2024-02-23T08:23:00;40;39;
47810;PMS5003;33575;52.600;7.318;2024-02-23T08:25:31;38;35;
47810;PMS5003;33575;52.600;7.318;2024-02-23T08:28:02;44;44;
47810;PMS5003;33575;52.600;7.318;2024-02-23T08:30:32;38;38;
47810;PMS5003;33575;52.600;7.318;2024-02-23T08:33:03;45;45;
47810;PMS5003;33575;52.600;7.318;2024-02-23T08:35:34;30;30;
47810;PMS5003;33575;52.600;7.318;2024-02-23T08:38:05;22;22;
47810;PMS5003;33575;52.600;7.318;2024-02-23T08:40:36;15;15;
47810;PMS5003;33575;52.600;7.318;2024-02-23T08:43:07;14;13;
47810;PMS5003;33575;52.600;7.318;2024-02-23T08:45:37;9;9;
47810;PMS5003;33575;52.600;7.318;2024-02-23T08:48:08;8;8;
47810;PMS5003;33575;52.600;7.318;2024-02-23T08:50:39;7;7;
47810;PMS5003;33575;52.600;7.318;2024-02-23T08:53:09;6;5;
47810;PMS5003;33575;52.600;7.318;2024-02-23T08:55:40;1;1;
47810;PMS5003;33575;52.600;7.318;2024-02-23T08:58:11;2;1;
47810;PMS5003;33575;52.600;7.318;2024-02-23T09:00:41;3;1;
47810;PMS5003;33575;52.600;7.318;2024-02-23T09:03:12;1;1;
47810;PMS5003;33575;52.600;7.318;2024-02-23T09:05:43;1;1;
47810;PMS5003;33575;52.600;7.318;2024-02-23T09:08:13;2;2;
47810;PMS5003;33575;52.600;7.318;2024-02-23T09:10:44;1;1;
47810;PMS5003;33575;52.600;7.318;2024-02-23T09:13:15;0;0;
47810;PMS5003;33575;52.600;7.318;2024-02-23T09:15:45;4;2;
47810;PMS5003;33575;52.600;7.318;2024-02-23T09:18:16;0;0;
47810;PMS5003;33575;52.600;7.318;2024-02-23T09:20:47;1;1;
47810;PMS5003;33575;52.600;7.318;2024-02-23T09:23:17;3;2;
47810;PMS5003;33575;52.600;7.318;2024-02-23T09:25:48;0;0;
47810;PMS5003;33575;52.600;7.318;2024-02-23T09:28:19;2;1;
47810;PMS5003;33575;52.600;7.318;2024-02-23T09:30:49;3;3;
47810;PMS5003;33575;52.600;7.318;2024-02-23T09:33:20;2;1;
47810;PMS5003;33575;52.600;7.318;2024-02-23T09:35:51;1;1;
47810;PMS5003;33575;52.600;7.318;2024-02-23T09:38:22;2;1;
47810;PMS5003;33575;52.600;7.318;2024-02-23T09:40:52;0;0;
47810;PMS5003;33575;52.600;7.318;2024-02-23T09:43:23;1;1;
47810;PMS5003;33575;52.600;7.318;2024-02-23T09:45:53;2;2;
47810;PMS5003;33575;52.600;7.318;2024-02-23T09:48:24;2;1;
47810;PMS5003;33575;52.600;7.318;2024-02-23T09:50:55;1;0;
47810;PMS5003;33575;52.600;7.318;2024-02-23T09:53:25;1;1;
47810;PMS5003;33575;52.600;7.318;2024-02-23T09:55:56;2;1;
47810;PMS5003;33575;52.600;7.318;2024-02-23T09:58:27;2;1;
47810;PMS5003;33575;52.600;7.318;2024-02-23T10:00:57;3;1;
47810;PMS5003;33575;52.600;7.318;2024-02-23T10:03:28;2;2;
47810;PMS5003;33575;52.600;7.318;2024-02-23T10:05:59;1;1;
47810;PMS5003;33575;52.600;7.318;2024-02-23T10:08:29;0;0;
47810;PMS5003;33575;52.600;7.318;2024-02-23T10:11:00;1;1;
47810;PMS5003;33575;52.600;7.318;2024-02-23T10:13:30;1;1;
47810;PMS5003;33575;52.600;7.318;2024-02-23T10:16:06;2;1;
47810;PMS5003;33575;52.600;7.318;2024-02-23T10:18:31;2;2;
47810;PMS5003;33575;52.600;7.318;2024-02-23T10:21:02;1;1;
47810;PMS5003;33575;52.600;7.318;2024-02-23T10:23:37;1;1;
47810;PMS5003;33575;52.600;7.318;2024-02-23T10:26:04;0;0;
47810;PMS5003;33575;52.600;7.318;2024-02-23T10:28:34;0;0;
47810;PMS5003;33575;52.600;7.318;2024-02-23T10:31:05;0;0;
47810;PMS5003;33575;52.600;7.318;2024-02-23T10:33:35;1;1;
47810;PMS5003;33575;52.600;7.318;2024-02-23T10:36:06;1;1;
47810;PMS5003;33575;52.600;7.318;2024-02-23T10:38:37;1;0;
47810;PMS5003;33575;52.600;7.318;2024-02-23T10:41:07;1;0;
47810;PMS5003;33575;52.600;7.318;2024-02-23T10:43:39;0;0;
47810;PMS5003;33575;52.600;7.318;2024-02-23T10:46:09;0;0;
47810;PMS5003;33575;52.600;7.318;2024-02-23T10:48:40;0;0;
47810;PMS5003;33575;52.600;7.318;2024-02-23T10:51:10;0;0;
47810;PMS5003;33575;52.600;7.318;2024-02-23T10:53:41;1;0;
47810;PMS5003;33575;52.600;7.318;2024-02-23T10:56:11;4;2;
47810;PMS5003;33575;52.600;7.318;2024-02-23T10:58:42;0;0;
47810;PMS5003;33575;52.600;7.318;2024-02-23T11:01:13;0;0;
47810;PMS5003;33575;52.600;7.318;2024-02-23T11:03:43;10;3;
47810;PMS5003;33575;52.600;7.318;2024-02-23T11:06:14;3;2;
47810;PMS5003;33575;52.600;7.318;2024-02-23T11:08:44;1;1;
47810;PMS5003;33575;52.600;7.318;2024-02-23T11:11:15;3;2;
47810;PMS5003;33575;52.600;7.318;2024-02-23T11:13:46;3;1;
47810;PMS5003;33575;52.600;7.318;2024-02-23T11:16:21;1;0;
47810;PMS5003;33575;52.600;7.318;2024-02-23T11:18:47;1;1;
47810;PMS5003;33575;52.600;7.318;2024-02-23T11:21:18;0;0;
47810;PMS5003;33575;52.600;7.318;2024-02-23T11:23:48;1;1;
47810;PMS5003;33575;52.600;7.318;2024-02-23T11:26:19;1;1;
47810;PMS5003;33575;52.600;7.318;2024-02-23T11:28:50;2;2;
47810;PMS5003;33575;52.600;7.318;2024-02-23T11:31:21;2;1;
47810;PMS5003;33575;52.600;7.318;2024-02-23T11:33:52;2;2;
47810;PMS5003;33575;52.600;7.318;2024-02-23T11:36:22;2;1;
47810;PMS5003;33575;52.600;7.318;2024-02-23T11:38:52;1;0;
47810;PMS5003;33575;52.600;7.318;2024-02-23T11:41:23;2;2;
47810;PMS5003;33575;52.600;7.318;2024-02-23T11:43:54;2;1;
47810;PMS5003;33575;52.600;7.318;2024-02-23T11:46:24;2;1;
47810;PMS5003;33575;52.600;7.318;2024-02-23T11:48:55;2;2;
47810;PMS5003;33575;52.600;7.318;2024-02-23T11:51:25;3;2;
47810;PMS5003;33575;52.600;7.318;2024-02-23T11:53:56;2;1;
47810;PMS5003;33575;52.600;7.318;2024-02-23T11:56:27;0;0;
47810;PMS5003;33575;52.600;7.318;2024-02-23T11:58:57;2;2;
47810;PMS5003;33575;52.600;7.318;2024-02-23T12:01:28;0;0;
47810;PMS5003;33575;52.600;7.318;2024-02-23T12:03:59;0;0;
47810;PMS5003;33575;52.600;7.318;2024-02-23T12:06:29;0;0;
47810;PMS5003;33575;52.600;7.318;2024-02-23T12:09:00;1;1;
47810;PMS5003;33575;52.600;7.318;2024-02-23T12:11:31;0;0;
47810;PMS5003;33575;52.600;7.318;2024-02-23T12:14:02;2;1;
47810;PMS5003;33575;52.600;7.318;2024-02-23T12:16:32;3;1;
47810;PMS5003;33575;52.600;7.318;2024-02-23T12:19:03;2;2;
47810;PMS5003;33575;52.600;7.318;2024-02-23T12:21:34;3;2;
47810;PMS5003;33575;52.600;7.318;2024-02-23T12:24:04;1;0;
47810;PMS5003;33575;52.600;7.318;2024-02-23T12:26:35;2;2;
47810;PMS5003;33575;52.600;7.318;2024-02-23T12:29:05;3;2;
47810;PMS5003;33575;52.600;7.318;2024-02-23T12:31:36;2;2;
47810;PMS5003;33575;52.600;7.318;2024-02-23T12:34:07;3;1;
47810;PMS5003;33575;52.600;7.318;2024-02-23T12:36:37;0;0;
47810;PMS5003;33575;52.600;7.318;2024-02-23T12:39:08;1;1;
47810;PMS5003;33575;52.600;7.318;2024-02-23T12:41:39;1;1;
47810;PMS5003;33575;52.600;7.318;2024-02-23T12:44:09;4;3;
47810;PMS5003;33575;52.600;7.318;2024-02-23T12:46:40;0;0;
47810;PMS5003;33575;52.600;7.318;2024-02-23T12:49:11;2;1;
47810;PMS5003;33575;52.600;7.318;2024-02-23T12:51:41;3;2;
47810;PMS5003;33575;52.600;7.318;2024-02-23T12:54:12;5;3;
47810;PMS5003;33575;52.600;7.318;2024-02-23T12:56:43;0;0;
47810;PMS5003;33575;52.600;7.318;2024-02-23T12:59:13;2;2;
47810;PMS5003;33575;52.600;7.318;2024-02-23T13:01:47;1;1;
47810;PMS5003;33575;52.600;7.318;2024-02-23T13:04:15;2;2;
47810;PMS5003;33575;52.600;7.318;2024-02-23T13:06:45;2;2;
47810;PMS5003;33575;52.600;7.318;2024-02-23T13:09:16;2;1;
47810;PMS5003;33575;52.600;7.318;2024-02-23T13:11:47;0;0;
47810;PMS5003;33575;52.600;7.318;2024-02-23T13:14:18;1;1;
47810;PMS5003;33575;52.600;7.318;2024-02-23T13:16:48;0;0;
47810;PMS5003;33575;52.600;7.318;2024-02-23T13:19:19;1;1;
47810;PMS5003;33575;52.600;7.318;2024-02-23T13:21:49;2;1;
47810;PMS5003;33575;52.600;7.318;2024-02-23T13:24:20;2;1;
47810;PMS5003;33575;52.600;7.318;2024-02-23T13:26:51;1;0;
47810;PMS5003;33575;52.600;7.318;2024-02-23T13:29:22;3;2;
47810;PMS5003;33575;52.600;7.318;2024-02-23T13:31:52;2;2;
47810;PMS5003;33575;52.600;7.318;2024-02-23T13:34:23;1;0;
47810;PMS5003;33575;52.600;7.318;2024-02-23T13:36:53;2;2;
47810;PMS5003;33575;52.600;7.318;2024-02-23T13:39:24;1;1;
47810;PMS5003;33575;52.600;7.318;2024-02-23T13:41:55;1;1;
47810;PMS5003;33575;52.600;7.318;2024-02-23T13:44:25;2;1;
47810;PMS5003;33575;52.600;7.318;2024-02-23T13:46:56;0;0;
47810;PMS5003;33575;52.600;7.318;2024-02-23T13:49:27;3;3;
47810;PMS5003;33575;52.600;7.318;2024-02-23T13:51:57;2;2;
47810;PMS5003;33575;52.600;7.318;2024-02-23T13:54:28;1;1;
47810;PMS5003;33575;52.600;7.318;2024-02-23T13:56:59;2;1;
47810;PMS5003;33575;52.600;7.318;2024-02-23T13:59:29;1;1;
47810;PMS5003;33575;52.600;7.318;2024-02-23T14:02:00;1;0;
47810;PMS5003;33575;52.600;7.318;2024-02-23T14:04:31;2;2;
47810;PMS5003;33575;52.600;7.318;2024-02-23T14:07:01;0;0;
47810;PMS5003;33575;52.600;7.318;2024-02-23T14:09:32;0;0;
47810;PMS5003;33575;52.600;7.318;2024-02-23T14:12:03;1;1;
47810;PMS5003;33575;52.600;7.318;2024-02-23T14:14:33;1;0;
47810;PMS5003;33575;52.600;7.318;2024-02-23T14:17:04;2;1;
47810;PMS5003;33575;52.600;7.318;2024-02-23T14:19:37;1;1;
47810;PMS5003;33575;52.600;7.318;2024-02-23T14:22:05;2;1;
47810;PMS5003;33575;52.600;7.318;2024-02-23T14:24:36;2;1;
47810;PMS5003;33575;52.600;7.318;2024-02-23T14:27:06;1;1;
47810;PMS5003;33575;52.600;7.318;2024-02-23T14:29:37;0;0;
47810;PMS5003;33575;52.600;7.318;2024-02-23T14:32:08;2;2;
47810;PMS5003;33575;52.600;7.318;2024-02-23T14:34:38;2;2;
47810;PMS5003;33575;52.600;7.318;2024-02-23T14:37:09;2;1;
47810;PMS5003;33575;52.600;7.318;2024-02-23T14:39:40;1;1;
47810;PMS5003;33575;52.600;7.318;2024-02-23T14:42:10;2;1;
47810;PMS5003;33575;52.600;7.318;2024-02-23T14:44:41;2;2;
47810;PMS5003;33575;52.600;7.318;2024-02-23T14:47:12;2;2;
47810;PMS5003;33575;52.600;7.318;2024-02-23T14:49:42;0;0;
47810;PMS5003;33575;52.600;7.318;2024-02-23T14:52:13;1;1;
47810;PMS5003;33575;52.600;7.318;2024-02-23T14:54:43;1;1;
47810;PMS5003;33575;52.600;7.318;2024-02-23T14:57:14;2;2;
47810;PMS5003;33575;52.600;7.318;2024-02-23T14:59:45;2;2;
47810;PMS5003;33575;52.600;7.318;2024-02-23T15:02:18;2;2;
47810;PMS5003;33575;52.600;7.318;2024-02-23T15:04:46;2;2;
47810;PMS5003;33575;52.600;7.318;2024-02-23T15:07:17;2;2;
47810;PMS5003;33575;52.600;7.318;2024-02-23T15:09:47;3;1;
47810;PMS5003;33575;52.600;7.318;2024-02-23T15:12:18;0;0;
47810;PMS5003;33575;52.600;7.318;2024-02-23T15:14:49;1;1;
47810;PMS5003;33575;52.600;7.318;2024-02-23T15:17:19;2;2;
47810;PMS5003;33575;52.600;7.318;2024-02-23T15:19:50;2;2;
47810;PMS5003;33575;52.600;7.318;2024-02-23T15:22:21;2;1;
47810;PMS5003;33575;52.600;7.318;2024-02-23T15:24:51;1;1;
47810;PMS5003;33575;52.600;7.318;2024-02-23T15:27:22;1;1;
47810;PMS5003;33575;52.600;7.318;2024-02-23T15:29:53;1;1;
47810;PMS5003;33575;52.600;7.318;2024-02-23T15:32:23;0;0;
47810;PMS5003;33575;52.600;7.318;2024-02-23T15:34:54;1;1;
47810;PMS5003;33575;52.600;7.318;2024-02-23T15:37:24;2;1;
47810;PMS5003;33575;52.600;7.318;2024-02-23T15:39:55;2;2;
47810;PMS5003;33575;52.600;7.318;2024-02-23T15:42:26;1;1;
47810;PMS5003;33575;52.600;7.318;2024-02-23T15:44:57;2;1;
47810;PMS5003;33575;52.600;7.318;2024-02-23T15:47:27;0;0;
47810;PMS5003;33575;52.600;7.318;2024-02-23T15:50:01;2;2;
47810;PMS5003;33575;52.600;7.318;2024-02-23T15:52:30;1;1;
47810;PMS5003;33575;52.600;7.318;2024-02-23T15:54:59;2;2;
47810;PMS5003;33575;52.600;7.318;2024-02-23T15:57:30;2;2;
47810;PMS5003;33575;52.600;7.318;2024-02-23T16:00:05;2;2;
47810;PMS5003;33575;52.600;7.318;2024-02-23T16:02:32;4;3;
47810;PMS5003;33575;52.600;7.318;2024-02-23T16:05:02;2;2;
47810;PMS5003;33575;52.600;7.318;2024-02-23T16:07:32;1;1;
47810;PMS5003;33575;52.600;7.318;2024-02-23T16:10:03;3;1;
47810;PMS5003;33575;52.600;7.318;2024-02-23T16:12:33;3;1;
47810;PMS5003;33575;52.600;7.318;2024-02-23T16:15:04;2;2;
47810;PMS5003;33575;52.600;7.318;2024-02-23T16:17:35;4;2;
47810;PMS5003;33575;52.600;7.318;2024-02-23T16:20:06;0;0;
47810;PMS5003;33575;52.600;7.318;2024-02-23T16:22:36;2;2;
47810;PMS5003;33575;52.600;7.318;2024-02-23T16:25:07;2;2;
47810;PMS5003;33575;52.600;7.318;2024-02-23T16:27:37;2;1;
47810;PMS5003;33575;52.600;7.318;2024-02-23T16:30:08;2;1;
47810;PMS5003;33575;52.600;7.318;2024-02-23T16:32:39;1;1;
47810;PMS5003;33575;52.600;7.318;2024-02-23T16:35:09;1;1;
47810;PMS5003;33575;52.600;7.318;2024-02-23T16:37:40;2;1;
47810;PMS5003;33575;52.600;7.318;2024-02-23T16:42:44;2;1;
47810;PMS5003;33575;52.600;7.318;2024-02-23T16:45:12;1;0;
47810;PMS5003;33575;52.600;7.318;2024-02-23T16:47:43;2;2;
47810;PMS5003;33575;52.600;7.318;2024-02-23T16:50:13;1;1;
47810;PMS5003;33575;52.600;7.318;2024-02-23T16:52:44;1;1;
47810;PMS5003;33575;52.600;7.318;2024-02-23T16:55:15;1;1;
47810;PMS5003;33575;52.600;7.318;2024-02-23T16:57:45;2;2;
47810;PMS5003;33575;52.600;7.318;2024-02-23T17:00:16;3;2;
47810;PMS5003;33575;52.600;7.318;2024-02-23T17:02:46;1;1;
47810;PMS5003;33575;52.600;7.318;2024-02-23T17:05:17;0;0;
47810;PMS5003;33575;52.600;7.318;2024-02-23T17:07:48;3;2;
47810;PMS5003;33575;52.600;7.318;2024-02-23T17:10:19;5;1;
47810;PMS5003;33575;52.600;7.318;2024-02-23T17:12:49;2;1;
47810;PMS5003;33575;52.600;7.318;2024-02-23T17:15:20;1;1;